sensor_id;sensor_type;location;lat;lon;timestamp;temperature;humidity
19363;DHT22;9817;50.80926400;5.16316200;2024-03-08T00:01:53;6.10;99.90
19363;DHT22;9817;50.80926400;5.16316200;2024-03-08T00:04:19;6.00;99.90
19363;DHT22;9817;50.80926400;5.16316200;2024-03-08T00:06:44;6.10;99.90
19363;DHT22;9817;50.80926400;5.16316200;2024-03-08T00:09:12;6.10;99.90
19363;DHT22;9817;50.80926400;5.16316200;2024-03-08T00:11:37;6.20;99.90
19363;DHT22;9817;50.80926400;5.16316200;2024-03-08T00:14:03;6.10;99.90
19363;DHT22;9817;50.80926400;5.16316200;2024-03-08T00:16:32;5.90;99.90
19363;DHT22;9817;50.80926400;5.16316200;2024-03-08T00:18:58;5.80;99.90
19363;DHT22;9817;50.80926400;5.16316200;2024-03-08T00:21:24;5.80;99.90
19363;DHT22;9817;50.80926400;5.16316200;2024-03-08T00:23:49;5.70;99.90
19363;DHT22;9817;50.80926400;5.16316200;2024-03-08T00:26:16;5.70;99.90
19363;DHT22;9817;50.80926400;5.16316200;2024-03-08T00:28:41;5.70;99.90
19363;DHT22;9817;50.80926400;5.16316200;2024-03-08T00:31:07;5.80;99.90
19363;DHT22;9817;50.80926400;5.16316200;2024-03-08T00:33:33;5.80;99.90
19363;DHT22;9817;50.80926400;5.16316200;2024-03-08T00:35:58;5.80;99.90
19363;DHT22;9817;50.80926400;5.16316200;2024-03-08T00:38:24;5.90;99.90
19363;DHT22;9817;50.80926400;5.16316200;2024-03-08T00:40:49;5.80;99.90
19363;DHT22;9817;50.80926400;5.16316200;2024-03-08T00:43:15;5.70;99.90
19363;DHT22;9817;50.80926400;5.16316200;2024-03-08T00:45:41;5.70;99.90
19363;DHT22;9817;50.80926400;5.16316200;2024-03-08T00:48:09;5.60;99.90
19363;DHT22;9817;50.80926400;5.16316200;2024-03-08T00:50:36;5.50;99.90
19363;DHT22;9817;50.80926400;5.16316200;2024-03-08T00:53:02;5.50;99.90
19363;DHT22;9817;50.80926400;5.16316200;2024-03-08T00:55:28;5.50;99.90
19363;DHT22;9817;50.80926400;5.16316200;2024-03-08T00:57:55;5.50;99.90
19363;DHT22;9817;50.80926400;5.16316200;2024-03-08T01:00:20;5.60;99.90
19363;DHT22;9817;50.80926400;5.16316200;2024-03-08T01:02:47;5.50;99.90
19363;DHT22;9817;50.80926400;5.16316200;2024-03-08T01:05:13;5.50;99.90
19363;DHT22;9817;50.80926400;5.16316200;2024-03-08T01:07:39;5.40;99.90
19363;DHT22;9817;50.80926400;5.16316200;2024-03-08T01:10:05;5.30;99.90
19363;DHT22;9817;50.80926400;5.16316200;2024-03-08T01:12:35;5.30;99.90
19363;DHT22;9817;50.80926400;5.16316200;2024-03-08T01:15:00;5.30;99.90
19363;DHT22;9817;50.80926400;5.16316200;2024-03-08T01:17:26;5.30;99.90
19363;DHT22;9817;50.80926400;5.16316200;2024-03-08T01:19:52;5.30;99.90
19363;DHT22;9817;50.80926400;5.16316200;2024-03-08T01:22:19;5.20;99.90
19363;DHT22;9817;50.80926400;5.16316200;2024-03-08T01:24:44;5.20;99.90
19363;DHT22;9817;50.80926400;5.16316200;2024-03-08T01:27:10;5.30;99.90
19363;DHT22;9817;50.80926400;5.16316200;2024-03-08T01:29:37;5.30;99.90
19363;DHT22;9817;50.80926400;5.16316200;2024-03-08T01:32:03;5.30;99.90
19363;DHT22;9817;50.80926400;5.16316200;2024-03-08T01:34:29;5.20;99.90
19363;DHT22;9817;50.80926400;5.16316200;2024-03-08T01:36:54;5.10;99.90
19363;DHT22;9817;50.80926400;5.16316200;2024-03-08T01:39:23;5.00;99.90
19363;DHT22;9817;50.80926400;5.16316200;2024-03-08T01:41:49;4.90;99.90
19363;DHT22;9817;50.80926400;5.16316200;2024-03-08T01:44:15;4.90;99.90
19363;DHT22;9817;50.80926400;5.16316200;2024-03-08T01:46:44;5.00;99.90
19363;DHT22;9817;50.80926400;5.16316200;2024-03-08T01:49:11;4.90;99.90
19363;DHT22;9817;50.80926400;5.16316200;2024-03-08T01:51:37;5.00;99.90
19363;DHT22;9817;50.80926400;5.16316200;2024-03-08T01:54:04;5.00;99.90
19363;DHT22;9817;50.80926400;5.16316200;2024-03-08T01:56:30;5.00;99.90
19363;DHT22;9817;50.80926400;5.16316200;2024-03-08T01:58:57;5.00;99.90
19363;DHT22;9817;50.80926400;5.16316200;2024-03-08T02:01:25;4.90;99.90
19363;DHT22;9817;50.80926400;5.16316200;2024-03-08T02:03:51;4.90;99.90
19363;DHT22;9817;50.80926400;5.16316200;2024-03-08T02:06:16;4.80;99.90
19363;DHT22;9817;50.80926400;5.16316200;2024-03-08T02:08:43;4.80;99.90
19363;DHT22;9817;50.80926400;5.16316200;2024-03-08T02:11:09;4.90;99.90
19363;DHT22;9817;50.80926400;5.16316200;2024-03-08T02:13:35;5.00;99.90
19363;DHT22;9817;50.80926400;5.16316200;2024-03-08T02:16:01;5.00;99.90
19363;DHT22;9817;50.80926400;5.16316200;2024-03-08T02:18:28;4.70;99.90
19363;DHT22;9817;50.80926400;5.16316200;2024-03-08T02:20:58;4.70;99.90
19363;DHT22;9817;50.80926400;5.16316200;2024-03-08T02:23:25;4.70;99.90
19363;DHT22;9817;50.80926400;5.16316200;2024-03-08T02:25:51;4.80;99.90
19363;DHT22;9817;50.80926400;5.16316200;2024-03-08T02:28:17;4.70;99.90
19363;DHT22;9817;50.80926400;5.16316200;2024-03-08T02:30:47;4.80;99.90
19363;DHT22;9817;50.80926400;5.16316200;2024-03-08T02:33:16;4.90;99.90
19363;DHT22;9817;50.80926400;5.16316200;2024-03-08T02:35:45;4.80;99.90
19363;DHT22;9817;50.80926400;5.16316200;2024-03-08T02:38:15;4.60;99.90
19363;DHT22;9817;50.80926400;5.16316200;2024-03-08T02:40:45;4.60;99.90
19363;DHT22;9817;50.80926400;5.16316200;2024-03-08T02:43:12;4.50;99.90
19363;DHT22;9817;50.80926400;5.16316200;2024-03-08T02:45:38;4.60;99.90
19363;DHT22;9817;50.80926400;5.16316200;2024-03-08T02:48:04;4.60;99.90
19363;DHT22;9817;50.80926400;5.16316200;2024-03-08T02:50:32;4.50;99.90
19363;DHT22;9817;50.80926400;5.16316200;2024-03-08T02:52:58;4.50;99.90
19363;DHT22;9817;50.80926400;5.16316200;2024-03-08T02:55:23;4.50;99.90
19363;DHT22;9817;50.80926400;5.16316200;2024-03-08T02:57:51;4.40;99.90
19363;DHT22;9817;50.80926400;5.16316200;2024-03-08T03:00:17;4.50;99.90
19363;DHT22;9817;50.80926400;5.16316200;2024-03-08T03:02:45;4.30;99.90
19363;DHT22;9817;50.80926400;5.16316200;2024-03-08T03:05:10;4.20;99.90
19363;DHT22;9817;50.80926400;5.16316200;2024-03-08T03:07:37;4.20;99.90
19363;DHT22;9817;50.80926400;5.16316200;2024-03-08T03:10:03;4.20;99.90
19363;DHT22;9817;50.80926400;5.16316200;2024-03-08T03:12:30;4.30;99.90
19363;DHT22;9817;50.80926400;5.16316200;2024-03-08T03:14:56;4.20;99.90
19363;DHT22;9817;50.80926400;5.16316200;2024-03-08T03:17:23;4.30;99.90
19363;DHT22;9817;50.80926400;5.16316200;2024-03-08T03:19:50;4.20;99.90
19363;DHT22;9817;50.80926400;5.16316200;2024-03-08T03:22:17;4.20;99.90
19363;DHT22;9817;50.80926400;5.16316200;2024-03-08T03:24:44;4.20;99.90
19363;DHT22;9817;50.80926400;5.16316200;2024-03-08T03:27:09;4.20;99.90
19363;DHT22;9817;50.80926400;5.16316200;2024-03-08T03:29:46;4.10;99.90
19363;DHT22;9817;50.80926400;5.16316200;2024-03-08T03:32:13;4.10;99.90
19363;DHT22;9817;50.80926400;5.16316200;2024-03-08T03:34:39;4.20;99.90
19363;DHT22;9817;50.80926400;5.16316200;2024-03-08T03:37:05;4.10;99.90
19363;DHT22;9817;50.80926400;5.16316200;2024-03-08T03:39:32;4.00;99.90
19363;DHT22;9817;50.80926400;5.16316200;2024-03-08T03:42:02;4.00;99.90
19363;DHT22;9817;50.80926400;5.16316200;2024-03-08T03:44:30;4.10;99.90
19363;DHT22;9817;50.80926400;5.16316200;2024-03-08T03:46:56;4.10;99.90
19363;DHT22;9817;50.80926400;5.16316200;2024-03-08T03:49:21;4.10;99.90
19363;DHT22;9817;50.80926400;5.16316200;2024-03-08T03:51:47;4.10;99.90
19363;DHT22;9817;50.80926400;5.16316200;2024-03-08T03:54:13;4.10;99.90
19363;DHT22;9817;50.80926400;5.16316200;2024-03-08T03:56:39;4.10;99.90
19363;DHT22;9817;50.80926400;5.16316200;2024-03-08T03:59:07;4.20;99.90
19363;DHT22;9817;50.80926400;5.16316200;2024-03-08T04:01:33;4.20;99.90
19363;DHT22;9817;50.80926400;5.16316200;2024-03-08T04:03:59;4.20;99.90
19363;DHT22;9817;50.80926400;5.16316200;2024-03-08T04:06:25;4.00;99.90
19363;DHT22;9817;50.80926400;5.16316200;2024-03-08T04:08:50;4.00;99.90
19363;DHT22;9817;50.80926400;5.16316200;2024-03-08T04:11:16;4.10;99.90
19363;DHT22;9817;50.80926400;5.16316200;2024-03-08T04:13:43;4.20;99.90
19363;DHT22;9817;50.80926400;5.16316200;2024-03-08T04:16:08;4.20;99.90
19363;DHT22;9817;50.80926400;5.16316200;2024-03-08T04:18:36;4.10;99.90
19363;DHT22;9817;50.80926400;5.16316200;2024-03-08T04:21:04;4.10;99.90
19363;DHT22;9817;50.80926400;5.16316200;2024-03-08T04:23:33;3.90;99.90
19363;DHT22;9817;50.80926400;5.16316200;2024-03-08T04:26:02;3.90;99.90
19363;DHT22;9817;50.80926400;5.16316200;2024-03-08T04:28:29;3.80;99.90
19363;DHT22;9817;50.80926400;5.16316200;2024-03-08T04:30:55;3.80;99.90
19363;DHT22;9817;50.80926400;5.16316200;2024-03-08T04:33:21;3.80;99.90
19363;DHT22;9817;50.80926400;5.16316200;2024-03-08T04:35:47;3.80;99.90
19363;DHT22;9817;50.80926400;5.16316200;2024-03-08T04:38:13;3.70;99.90
19363;DHT22;9817;50.80926400;5.16316200;2024-03-08T04:40:39;3.70;99.90
19363;DHT22;9817;50.80926400;5.16316200;2024-03-08T04:43:05;3.70;99.90
19363;DHT22;9817;50.80926400;5.16316200;2024-03-08T04:45:31;3.60;99.90
19363;DHT22;9817;50.80926400;5.16316200;2024-03-08T04:47:57;3.70;99.90
19363;DHT22;9817;50.80926400;5.16316200;2024-03-08T04:50:23;3.80;99.90
19363;DHT22;9817;50.80926400;5.16316200;2024-03-08T04:52:49;3.80;99.90
19363;DHT22;9817;50.80926400;5.16316200;2024-03-08T04:55:14;3.70;99.90
19363;DHT22;9817;50.80926400;5.16316200;2024-03-08T04:57:40;3.70;99.90
19363;DHT22;9817;50.80926400;5.16316200;2024-03-08T05:00:07;3.60;99.90
19363;DHT22;9817;50.80926400;5.16316200;2024-03-08T05:02:37;3.50;99.90
19363;DHT22;9817;50.80926400;5.16316200;2024-03-08T05:05:05;3.70;99.90
19363;DHT22;9817;50.80926400;5.16316200;2024-03-08T05:07:38;3.70;99.90
19363;DHT22;9817;50.80926400;5.16316200;2024-03-08T05:10:05;3.70;99.90
19363;DHT22;9817;50.80926400;5.16316200;2024-03-08T05:12:32;3.70;99.90
19363;DHT22;9817;50.80926400;5.16316200;2024-03-08T05:14:58;3.80;99.90
19363;DHT22;9817;50.80926400;5.16316200;2024-03-08T05:17:24;3.60;99.90
19363;DHT22;9817;50.80926400;5.16316200;2024-03-08T05:19:50;3.70;99.90
19363;DHT22;9817;50.80926400;5.16316200;2024-03-08T05:22:16;3.60;99.90
19363;DHT22;9817;50.80926400;5.16316200;2024-03-08T05:24:41;3.70;99.90
19363;DHT22;9817;50.80926400;5.16316200;2024-03-08T05:27:08;3.60;99.90
19363;DHT22;9817;50.80926400;5.16316200;2024-03-08T05:29:33;3.70;99.90
19363;DHT22;9817;50.80926400;5.16316200;2024-03-08T05:31:59;3.60;99.90
19363;DHT22;9817;50.80926400;5.16316200;2024-03-08T05:34:25;3.60;99.90
19363;DHT22;9817;50.80926400;5.16316200;2024-03-08T05:36:51;3.60;99.90
19363;DHT22;9817;50.80926400;5.16316200;2024-03-08T05:39:19;3.60;99.90
19363;DHT22;9817;50.80926400;5.16316200;2024-03-08T05:41:45;3.60;99.90
19363;DHT22;9817;50.80926400;5.16316200;2024-03-08T05:44:11;3.60;99.90
19363;DHT22;9817;50.80926400;5.16316200;2024-03-08T05:46:37;3.60;99.90
19363;DHT22;9817;50.80926400;5.16316200;2024-03-08T05:49:03;3.50;99.90
19363;DHT22;9817;50.80926400;5.16316200;2024-03-08T05:51:33;3.50;99.90
19363;DHT22;9817;50.80926400;5.16316200;2024-03-08T05:54:02;3.50;99.90
19363;DHT22;9817;50.80926400;5.16316200;2024-03-08T05:56:29;3.40;99.90
19363;DHT22;9817;50.80926400;5.16316200;2024-03-08T05:58:54;3.40;99.90
19363;DHT22;9817;50.80926400;5.16316200;2024-03-08T06:01:20;3.30;99.90
19363;DHT22;9817;50.80926400;5.16316200;2024-03-08T06:03:47;3.30;99.90
19363;DHT22;9817;50.80926400;5.16316200;2024-03-08T06:06:14;3.30;99.90
19363;DHT22;9817;50.80926400;5.16316200;2024-03-08T06:08:40;3.30;99.90
19363;DHT22;9817;50.80926400;5.16316200;2024-03-08T06:11:08;3.30;99.90
19363;DHT22;9817;50.80926400;5.16316200;2024-03-08T06:13:34;3.30;99.90
19363;DHT22;9817;50.80926400;5.16316200;2024-03-08T06:16:03;3.30;99.90
19363;DHT22;9817;50.80926400;5.16316200;2024-03-08T06:18:30;3.40;99.90
19363;DHT22;9817;50.80926400;5.16316200;2024-03-08T06:20:56;3.30;99.90
19363;DHT22;9817;50.80926400;5.16316200;2024-03-08T06:23:22;3.40;99.90
19363;DHT22;9817;50.80926400;5.16316200;2024-03-08T06:25:48;3.50;99.90
19363;DHT22;9817;50.80926400;5.16316200;2024-03-08T06:28:14;3.50;99.90
19363;DHT22;9817;50.80926400;5.16316200;2024-03-08T06:30:40;3.60;99.90
19363;DHT22;9817;50.80926400;5.16316200;2024-03-08T06:33:06;3.50;99.90
19363;DHT22;9817;50.80926400;5.16316200;2024-03-08T06:35:32;3.40;99.90
19363;DHT22;9817;50.80926400;5.16316200;2024-03-08T06:38:01;3.40;99.90
19363;DHT22;9817;50.80926400;5.16316200;2024-03-08T06:40:26;3.40;99.90
19363;DHT22;9817;50.80926400;5.16316200;2024-03-08T06:42:52;3.50;99.90
19363;DHT22;9817;50.80926400;5.16316200;2024-03-08T06:45:18;3.50;99.90
19363;DHT22;9817;50.80926400;5.16316200;2024-03-08T06:47:44;3.60;99.90
19363;DHT22;9817;50.80926400;5.16316200;2024-03-08T06:50:11;3.80;99.90
19363;DHT22;9817;50.80926400;5.16316200;2024-03-08T06:52:37;3.90;99.90
19363;DHT22;9817;50.80926400;5.16316200;2024-03-08T06:55:03;4.10;99.90
19363;DHT22;9817;50.80926400;5.16316200;2024-03-08T06:57:31;4.20;99.90
19363;DHT22;9817;50.80926400;5.16316200;2024-03-08T06:59:56;4.10;99.90
19363;DHT22;9817;50.80926400;5.16316200;2024-03-08T07:02:25;4.10;99.90
19363;DHT22;9817;50.80926400;5.16316200;2024-03-08T07:04:51;4.30;99.90
19363;DHT22;9817;50.80926400;5.16316200;2024-03-08T07:07:18;4.20;99.90
19363;DHT22;9817;50.80926400;5.16316200;2024-03-08T07:09:45;4.20;99.90
19363;DHT22;9817;50.80926400;5.16316200;2024-03-08T07:12:11;4.40;99.90
19363;DHT22;9817;50.80926400;5.16316200;2024-03-08T07:14:39;4.70;99.90
19363;DHT22;9817;50.80926400;5.16316200;2024-03-08T07:17:07;5.10;99.90
19363;DHT22;9817;50.80926400;5.16316200;2024-03-08T07:19:34;5.40;99.90
19363;DHT22;9817;50.80926400;5.16316200;2024-03-08T07:22:00;5.70;99.90
19363;DHT22;9817;50.80926400;5.16316200;2024-03-08T07:24:29;5.80;99.90
19363;DHT22;9817;50.80926400;5.16316200;2024-03-08T07:27:16;5.80;99.90
19363;DHT22;9817;50.80926400;5.16316200;2024-03-08T07:29:42;6.30;99.90
19363;DHT22;9817;50.80926400;5.16316200;2024-03-08T07:32:08;6.60;99.90
19363;DHT22;9817;50.80926400;5.16316200;2024-03-08T07:34:50;6.80;99.90
19363;DHT22;9817;50.80926400;5.16316200;2024-03-08T07:37:17;7.00;99.90
19363;DHT22;9817;50.80926400;5.16316200;2024-03-08T07:39:43;7.00;99.90
19363;DHT22;9817;50.80926400;5.16316200;2024-03-08T07:42:09;7.10;99.90
19363;DHT22;9817;50.80926400;5.16316200;2024-03-08T07:44:35;7.30;99.90
19363;DHT22;9817;50.80926400;5.16316200;2024-03-08T07:47:01;7.50;99.90
19363;DHT22;9817;50.80926400;5.16316200;2024-03-08T07:49:26;7.60;99.90
19363;DHT22;9817;50.80926400;5.16316200;2024-03-08T07:51:52;8.20;99.90
19363;DHT22;9817;50.80926400;5.16316200;2024-03-08T07:54:18;8.20;99.90
19363;DHT22;9817;50.80926400;5.16316200;2024-03-08T07:56:43;8.60;99.90
19363;DHT22;9817;50.80926400;5.16316200;2024-03-08T07:59:09;9.20;99.90
19363;DHT22;9817;50.80926400;5.16316200;2024-03-08T08:01:37;10.30;99.90
19363;DHT22;9817;50.80926400;5.16316200;2024-03-08T08:04:03;10.80;99.90
19363;DHT22;9817;50.80926400;5.16316200;2024-03-08T08:06:29;11.40;99.90
19363;DHT22;9817;50.80926400;5.16316200;2024-03-08T08:08:59;11.50;99.90
19363;DHT22;9817;50.80926400;5.16316200;2024-03-08T08:11:27;11.40;99.90
19363;DHT22;9817;50.80926400;5.16316200;2024-03-08T08:13:56;11.20;99.90
19363;DHT22;9817;50.80926400;5.16316200;2024-03-08T08:16:25;10.30;99.90
19363;DHT22;9817;50.80926400;5.16316200;2024-03-08T08:18:51;10.30;99.90
19363;DHT22;9817;50.80926400;5.16316200;2024-03-08T08:21:18;10.20;99.90
19363;DHT22;9817;50.80926400;5.16316200;2024-03-08T08:23:43;9.80;99.90
19363;DHT22;9817;50.80926400;5.16316200;2024-03-08T08:26:10;9.80;99.90
19363;DHT22;9817;50.80926400;5.16316200;2024-03-08T08:28:36;10.30;99.90
19363;DHT22;9817;50.80926400;5.16316200;2024-03-08T08:31:02;10.80;99.90
19363;DHT22;9817;50.80926400;5.16316200;2024-03-08T08:33:29;11.20;99.90
19363;DHT22;9817;50.80926400;5.16316200;2024-03-08T08:35:55;11.00;99.90
19363;DHT22;9817;50.80926400;5.16316200;2024-03-08T08:38:21;10.80;99.90
19363;DHT22;9817;50.80926400;5.16316200;2024-03-08T08:40:47;10.40;99.90
19363;DHT22;9817;50.80926400;5.16316200;2024-03-08T08:43:13;10.80;99.90
19363;DHT22;9817;50.80926400;5.16316200;2024-03-08T08:45:39;10.80;99.90
19363;DHT22;9817;50.80926400;5.16316200;2024-03-08T08:48:06;10.30;99.90
19363;DHT22;9817;50.80926400;5.16316200;2024-03-08T08:50:32;10.00;99.90
19363;DHT22;9817;50.80926400;5.16316200;2024-03-08T08:52:57;9.60;99.90
19363;DHT22;9817;50.80926400;5.16316200;2024-03-08T08:55:24;10.10;99.90
19363;DHT22;9817;50.80926400;5.16316200;2024-03-08T08:57:52;10.30;99.90
19363;DHT22;9817;50.80926400;5.16316200;2024-03-08T09:00:21;10.40;99.90
19363;DHT22;9817;50.80926400;5.16316200;2024-03-08T09:02:49;11.00;99.90
19363;DHT22;9817;50.80926400;5.16316200;2024-03-08T09:05:16;10.30;99.90
19363;DHT22;9817;50.80926400;5.16316200;2024-03-08T09:07:43;9.80;99.90
19363;DHT22;9817;50.80926400;5.16316200;2024-03-08T09:10:09;9.90;99.90
19363;DHT22;9817;50.80926400;5.16316200;2024-03-08T09:12:40;10.00;99.90
19363;DHT22;9817;50.80926400;5.16316200;2024-03-08T09:15:06;10.20;99.90
19363;DHT22;9817;50.80926400;5.16316200;2024-03-08T09:17:46;10.20;99.90
19363;DHT22;9817;50.80926400;5.16316200;2024-03-08T09:20:12;10.60;99.90
19363;DHT22;9817;50.80926400;5.16316200;2024-03-08T09:22:43;10.70;99.90
19363;DHT22;9817;50.80926400;5.16316200;2024-03-08T09:25:09;10.70;99.90
19363;DHT22;9817;50.80926400;5.16316200;2024-03-08T09:27:35;10.70;99.90
19363;DHT22;9817;50.80926400;5.16316200;2024-03-08T09:30:01;10.90;99.90
19363;DHT22;9817;50.80926400;5.16316200;2024-03-08T09:32:27;12.00;99.90
19363;DHT22;9817;50.80926400;5.16316200;2024-03-08T09:34:52;12.90;99.90
19363;DHT22;9817;50.80926400;5.16316200;2024-03-08T09:37:18;12.80;99.90
19363;DHT22;9817;50.80926400;5.16316200;2024-03-08T09:39:44;12.40;99.90
19363;DHT22;9817;50.80926400;5.16316200;2024-03-08T09:42:10;12.70;99.90
19363;DHT22;9817;50.80926400;5.16316200;2024-03-08T09:44:44;12.40;99.90
19363;DHT22;9817;50.80926400;5.16316200;2024-03-08T09:47:10;12.90;99.90
19363;DHT22;9817;50.80926400;5.16316200;2024-03-08T09:49:39;12.60;99.90
19363;DHT22;9817;50.80926400;5.16316200;2024-03-08T09:52:07;12.80;99.90
19363;DHT22;9817;50.80926400;5.16316200;2024-03-08T09:54:33;12.90;99.90
19363;DHT22;9817;50.80926400;5.16316200;2024-03-08T09:56:59;13.80;99.90
19363;DHT22;9817;50.80926400;5.16316200;2024-03-08T09:59:25;14.00;99.90
19363;DHT22;9817;50.80926400;5.16316200;2024-03-08T10:01:53;13.20;99.90
19363;DHT22;9817;50.80926400;5.16316200;2024-03-08T10:04:22;12.80;99.90
19363;DHT22;9817;50.80926400;5.16316200;2024-03-08T10:06:48;12.70;99.90
19363;DHT22;9817;50.80926400;5.16316200;2024-03-08T10:09:14;12.60;99.90
19363;DHT22;9817;50.80926400;5.16316200;2024-03-08T10:11:41;12.70;99.90
19363;DHT22;9817;50.80926400;5.16316200;2024-03-08T10:14:10;12.50;99.90
19363;DHT22;9817;50.80926400;5.16316200;2024-03-08T10:16:37;12.00;99.90
19363;DHT22;9817;50.80926400;5.16316200;2024-03-08T10:19:03;12.10;99.90
19363;DHT22;9817;50.80926400;5.16316200;2024-03-08T10:21:32;12.30;99.90
19363;DHT22;9817;50.80926400;5.16316200;2024-03-08T10:23:58;11.60;99.90
19363;DHT22;9817;50.80926400;5.16316200;2024-03-08T10:26:24;11.50;99.90
19363;DHT22;9817;50.80926400;5.16316200;2024-03-08T10:28:52;11.50;99.90
19363;DHT22;9817;50.80926400;5.16316200;2024-03-08T10:31:19;11.60;99.90
19363;DHT22;9817;50.80926400;5.16316200;2024-03-08T10:33:48;11.60;99.90
19363;DHT22;9817;50.80926400;5.16316200;2024-03-08T10:36:15;11.40;99.90
19363;DHT22;9817;50.80926400;5.16316200;2024-03-08T10:38:42;11.70;99.90
19363;DHT22;9817;50.80926400;5.16316200;2024-03-08T10:41:12;11.60;99.90
19363;DHT22;9817;50.80926400;5.16316200;2024-03-08T10:48:58;11.90;99.90
19363;DHT22;9817;50.80926400;5.16316200;2024-03-08T10:51:29;12.10;99.90
19363;DHT22;9817;50.80926400;5.16316200;2024-03-08T10:53:57;12.10;99.90
19363;DHT22;9817;50.80926400;5.16316200;2024-03-08T10:56:23;11.90;99.90
19363;DHT22;9817;50.80926400;5.16316200;2024-03-08T10:58:54;12.10;99.90
19363;DHT22;9817;50.80926400;5.16316200;2024-03-08T11:01:20;12.10;99.90
19363;DHT22;9817;50.80926400;5.16316200;2024-03-08T11:03:46;12.00;99.90
19363;DHT22;9817;50.80926400;5.16316200;2024-03-08T11:06:21;12.10;99.90
19363;DHT22;9817;50.80926400;5.16316200;2024-03-08T11:08:48;12.20;99.90
19363;DHT22;9817;50.80926400;5.16316200;2024-03-08T11:11:29;12.20;99.90
19363;DHT22;9817;50.80926400;5.16316200;2024-03-08T11:13:56;12.20;99.90
19363;DHT22;9817;50.80926400;5.16316200;2024-03-08T11:18:55;12.60;99.90
19363;DHT22;9817;50.80926400;5.16316200;2024-03-08T11:21:25;12.40;99.90
19363;DHT22;9817;50.80926400;5.16316200;2024-03-08T11:24:02;12.40;99.90
19363;DHT22;9817;50.80926400;5.16316200;2024-03-08T11:26:31;12.30;99.90
19363;DHT22;9817;50.80926400;5.16316200;2024-03-08T11:32:08;12.70;99.90
19363;DHT22;9817;50.80926400;5.16316200;2024-03-08T11:34:40;12.80;99.90
19363;DHT22;9817;50.80926400;5.16316200;2024-03-08T11:37:21;12.80;99.90
19363;DHT22;9817;50.80926400;5.16316200;2024-03-08T11:39:48;12.90;99.90
19363;DHT22;9817;50.80926400;5.16316200;2024-03-08T11:42:15;12.80;99.90
19363;DHT22;9817;50.80926400;5.16316200;2024-03-08T11:44:43;12.80;99.90
19363;DHT22;9817;50.80926400;5.16316200;2024-03-08T11:47:10;12.80;99.90
19363;DHT22;9817;50.80926400;5.16316200;2024-03-08T11:49:37;13.00;99.90
19363;DHT22;9817;50.80926400;5.16316200;2024-03-08T11:52:03;13.30;99.90
19363;DHT22;9817;50.80926400;5.16316200;2024-03-08T11:54:29;13.30;99.90
19363;DHT22;9817;50.80926400;5.16316200;2024-03-08T11:56:56;13.20;99.90
19363;DHT22;9817;50.80926400;5.16316200;2024-03-08T11:59:29;13.30;99.90
19363;DHT22;9817;50.80926400;5.16316200;2024-03-08T12:02:02;13.20;99.90
19363;DHT22;9817;50.80926400;5.16316200;2024-03-08T12:04:29;13.40;99.90
19363;DHT22;9817;50.80926400;5.16316200;2024-03-08T12:06:54;13.60;99.90
19363;DHT22;9817;50.80926400;5.16316200;2024-03-08T12:09:20;13.60;99.90
19363;DHT22;9817;50.80926400;5.16316200;2024-03-08T12:11:50;13.40;99.90
19363;DHT22;9817;50.80926400;5.16316200;2024-03-08T12:14:16;13.50;99.90
19363;DHT22;9817;50.80926400;5.16316200;2024-03-08T12:16:42;13.60;99.90
19363;DHT22;9817;50.80926400;5.16316200;2024-03-08T12:19:09;14.00;99.90
19363;DHT22;9817;50.80926400;5.16316200;2024-03-08T12:21:36;14.20;99.90
19363;DHT22;9817;50.80926400;5.16316200;2024-03-08T12:24:09;14.10;99.90
19363;DHT22;9817;50.80926400;5.16316200;2024-03-08T12:26:36;14.00;99.90
19363;DHT22;9817;50.80926400;5.16316200;2024-03-08T12:29:18;14.30;99.90
19363;DHT22;9817;50.80926400;5.16316200;2024-03-08T12:31:46;14.40;99.90
19363;DHT22;9817;50.80926400;5.16316200;2024-03-08T12:34:13;14.50;99.90
19363;DHT22;9817;50.80926400;5.16316200;2024-03-08T12:36:50;14.70;99.90
19363;DHT22;9817;50.80926400;5.16316200;2024-03-08T12:39:19;14.80;99.90
19363;DHT22;9817;50.80926400;5.16316200;2024-03-08T12:41:49;14.50;99.90
19363;DHT22;9817;50.80926400;5.16316200;2024-03-08T12:44:17;14.60;99.90
19363;DHT22;9817;50.80926400;5.16316200;2024-03-08T12:46:44;14.20;99.90
19363;DHT22;9817;50.80926400;5.16316200;2024-03-08T12:49:10;14.20;99.90
19363;DHT22;9817;50.80926400;5.16316200;2024-03-08T12:51:38;14.40;99.90
19363;DHT22;9817;50.80926400;5.16316200;2024-03-08T12:54:05;14.30;99.90
19363;DHT22;9817;50.80926400;5.16316200;2024-03-08T12:56:34;14.20;99.90
19363;DHT22;9817;50.80926400;5.16316200;2024-03-08T12:59:00;14.20;99.90
19363;DHT22;9817;50.80926400;5.16316200;2024-03-08T13:01:27;14.20;99.90
19363;DHT22;9817;50.80926400;5.16316200;2024-03-08T13:03:53;14.20;99.90
19363;DHT22;9817;50.80926400;5.16316200;2024-03-08T13:06:19;14.20;99.90
19363;DHT22;9817;50.80926400;5.16316200;2024-03-08T13:08:50;14.10;99.90
19363;DHT22;9817;50.80926400;5.16316200;2024-03-08T13:11:16;14.10;99.90
19363;DHT22;9817;50.80926400;5.16316200;2024-03-08T13:13:43;14.00;99.90
19363;DHT22;9817;50.80926400;5.16316200;2024-03-08T13:16:10;14.20;99.90
19363;DHT22;9817;50.80926400;5.16316200;2024-03-08T13:18:36;14.30;99.90
19363;DHT22;9817;50.80926400;5.16316200;2024-03-08T13:21:02;14.40;99.90
19363;DHT22;9817;50.80926400;5.16316200;2024-03-08T13:23:32;14.40;99.90
19363;DHT22;9817;50.80926400;5.16316200;2024-03-08T13:25:57;14.40;99.90
19363;DHT22;9817;50.80926400;5.16316200;2024-03-08T13:28:23;14.40;99.90
19363;DHT22;9817;50.80926400;5.16316200;2024-03-08T13:30:53;14.40;99.90
19363;DHT22;9817;50.80926400;5.16316200;2024-03-08T13:33:19;14.40;99.90
19363;DHT22;9817;50.80926400;5.16316200;2024-03-08T13:35:46;14.50;99.90
19363;DHT22;9817;50.80926400;5.16316200;2024-03-08T13:38:12;14.70;99.90
19363;DHT22;9817;50.80926400;5.16316200;2024-03-08T13:40:39;14.70;99.90
19363;DHT22;9817;50.80926400;5.16316200;2024-03-08T13:43:06;14.80;99.90
19363;DHT22;9817;50.80926400;5.16316200;2024-03-08T13:45:34;14.90;99.90
19363;DHT22;9817;50.80926400;5.16316200;2024-03-08T13:48:03;14.90;99.90
19363;DHT22;9817;50.80926400;5.16316200;2024-03-08T13:50:30;15.00;99.90
19363;DHT22;9817;50.80926400;5.16316200;2024-03-08T13:52:56;14.90;99.90